Time;durP1;ratioP1;P1;durP2;ratioP2;P2;SDS_P1;SDS_P2;PMS_P1;PMS_P2;Temp;Humidity;BMP_temperature;BMP_pressure;BME280_temperature;BME280_humidity;BME280_pressure;Samples;Min_cycle;Max_cycle;Signal;HPM_P1;HPM_P2
2023/02/04 00:01:33;;;;;;;2.63;1.40;;;;;;;1.77;100.00;102470.38;7397743;19;20419;-53
2023/02/04 00:04:05;;;;;;;2.53;1.10;;;;;;;1.70;100.00;102482.44;7396416;19;20411;-52
2023/02/04 00:06:34;;;;;;;3.03;1.20;;;;;;;1.86;100.00;102484.97;7396294;19;20442;-51
2023/02/04 00:09:04;;;;;;;2.73;1.30;;;;;;;1.95;100.00;102485.03;7399777;19;20395;-51
2023/02/04 00:11:33;;;;;;;3.90;1.17;;;;;;;1.79;100.00;102487.59;7397057;19;20403;-53
2023/02/04 00:14:03;;;;;;;4.77;1.27;;;;;;;1.70;100.00;102496.84;7399333;19;20404;-49
2023/02/04 00:16:32;;;;;;;2.93;1.03;;;;;;;1.70;100.00;102496.84;7396033;19;20438;-50
2023/02/04 00:19:04;;;;;;;2.70;1.03;;;;;;;1.72;100.00;102500.44;7399395;19;20407;-52
2023/02/04 00:21:34;;;;;;;3.23;1.10;;;;;;;1.68;100.00;102499.22;7396851;19;20777;-50
2023/02/04 00:24:03;;;;;;;3.87;1.30;;;;;;;1.76;100.00;102507.66;7399362;19;20400;-53
2023/02/04 00:26:33;;;;;;;2.77;1.10;;;;;;;1.82;100.00;102509.94;7395946;19;20419;-51
2023/02/04 00:29:02;;;;;;;2.50;1.27;;;;;;;1.89;100.00;102514.94;7399112;19;20403;-50
2023/02/04 00:31:32;;;;;;;4.53;1.47;;;;;;;1.79;100.00;102527.44;7396465;19;20443;-51
2023/02/04 00:34:04;;;;;;;5.80;1.50;;;;;;;1.67;100.00;102527.03;7398942;19;20411;-50
2023/02/04 00:36:34;;;;;;;4.53;1.67;;;;;;;1.73;100.00;102538.78;7394476;19;21465;-51
2023/02/04 00:39:03;;;;;;;2.53;1.30;;;;;;;2.00;100.00;102534.78;7395344;19;20931;-52
2023/02/04 00:41:32;;;;;;;2.67;1.47;;;;;;;2.28;100.00;102537.69;7392551;19;20414;-50
2023/02/04 00:44:02;;;;;;;2.43;1.27;;;;;;;2.36;100.00;102535.03;7395212;19;21054;-51
2023/02/04 00:46:31;;;;;;;6.23;1.70;;;;;;;2.34;100.00;102541.59;7391703;19;20446;-50
2023/02/04 00:49:01;;;;;;;4.27;1.50;;;;;;;2.31;100.00;102548.94;7395353;19;20446;-50
2023/02/04 00:51:33;;;;;;;3.67;1.67;;;;;;;1.83;100.00;102557.56;7395155;19;20402;-49
2023/02/04 00:54:02;;;;;;;4.93;1.90;;;;;;;1.70;100.00;102568.97;7394609;19;21109;-54
2023/02/04 00:56:32;;;;;;;4.07;1.20;;;;;;;1.57;100.00;102573.50;7389009;19;20434;-53
2023/02/04 00:59:01;;;;;;;3.20;1.20;;;;;;;1.43;100.00;102582.22;7395178;19;20407;-53
2023/02/04 01:01:31;;;;;;;2.73;1.40;;;;;;;1.52;100.00;102587.38;7394631;19;20387;-48
2023/02/04 01:04:00;;;;;;;2.47;1.50;;;;;;;1.39;100.00;102588.59;7395632;19;20800;-54
2023/02/04 01:06:32;;;;;;;4.60;1.63;;;;;;;1.26;100.00;102605.78;7391744;19;20794;-49
2023/02/04 01:09:02;;;;;;;3.00;1.40;;;;;;;1.19;100.00;102610.22;7395642;19;20447;-50
2023/02/04 01:11:32;;;;;;;4.20;1.53;;;;;;;1.15;100.00;102610.63;7394991;19;20408;-52
2023/02/04 01:14:02;;;;;;;3.23;1.10;;;;;;;1.05;100.00;102607.81;7397781;19;20399;-51
2023/02/04 01:16:31;;;;;;;3.60;1.43;;;;;;;1.11;100.00;102608.47;7393397;19;20419;-49
2023/02/04 01:19:01;;;;;;;4.33;1.67;;;;;;;1.07;100.00;102609.78;7397685;19;20935;-50
2023/02/04 01:21:33;;;;;;;2.83;1.67;;;;;;;1.04;100.00;102617.06;7397090;19;20396;-49
2023/02/04 01:24:02;;;;;;;5.90;1.43;;;;;;;1.00;100.00;102620.00;7396431;19;20447;-52
2023/02/04 01:26:32;;;;;;;2.40;1.50;;;;;;;1.06;100.00;102622.31;7393339;19;20771;-49
2023/02/04 01:29:01;;;;;;;3.10;1.73;;;;;;;1.04;100.00;102609.44;7396971;19;20945;-50
2023/02/04 01:31:32;;;;;;;3.23;1.10;;;;;;;1.01;100.00;102619.28;7394288;19;20386;-51
2023/02/04 01:34:02;;;;;;;3.93;1.63;;;;;;;1.25;100.00;102629.41;7394418;19;20426;-50
2023/02/04 01:36:34;;;;;;;4.93;1.70;;;;;;;1.35;100.00;102620.41;7392413;19;20980;-51
2023/02/04 01:39:04;;;;;;;2.80;1.67;;;;;;;1.35;100.00;102614.44;7393750;19;20769;-51
2023/02/04 01:41:33;;;;;;;2.80;1.60;;;;;;;1.65;100.00;102612.50;7393690;19;20407;-52
2023/02/04 01:44:03;;;;;;;3.70;1.67;;;;;;;1.89;100.00;102606.59;7396645;19;20415;-55
2023/02/04 01:46:33;;;;;;;2.43;1.17;;;;;;;1.87;100.00;102608.06;7392675;19;20415;-51
2023/02/04 01:49:02;;;;;;;3.07;1.60;;;;;;;1.40;100.00;102623.47;7396185;19;20418;-52
2023/02/04 01:51:35;;;;;;;9.67;1.93;;;;;;;1.51;100.00;102621.19;7393368;19;20403;-53
2023/02/04 01:54:05;;;;;;;5.97;2.10;;;;;;;1.64;100.00;102625.97;7394423;19;20433;-51
2023/02/04 01:56:35;;;;;;;3.57;1.73;;;;;;;1.85;100.00;102619.75;7392038;19;20439;-54
2023/02/04 01:59:11;;;;;;;5.00;1.83;;;;;;;1.95;100.00;102614.88;7396024;19;20399;-50
2023/02/04 02:01:42;;;;;;;3.23;1.73;;;;;;;1.97;100.00;102610.88;7393422;19;20421;-51
2023/02/04 02:04:12;;;;;;;3.90;2.30;;;;;;;1.51;100.00;102627.19;7396597;19;20403;-51
2023/02/04 02:06:47;;;;;;;4.90;2.17;;;;;;;1.38;100.00;102635.13;7392040;19;20431;-52
2023/02/04 02:09:16;;;;;;;3.50;1.50;;;;;;;1.38;100.00;102626.59;7396927;19;20403;-50
2023/02/04 02:11:46;;;;;;;2.47;1.60;;;;;;;1.19;100.00;102638.19;7393110;19;20418;-53
2023/02/04 02:14:15;;;;;;;3.40;1.70;;;;;;;1.10;100.00;102637.19;7394778;19;20927;-52
2023/02/04 02:16:45;;;;;;;2.30;1.50;;;;;;;1.21;100.00;102641.81;7387540;19;20427;-50
2023/02/04 02:19:17;;;;;;;4.23;1.57;;;;;;;1.51;100.00;102636.44;7394396;19;20496;-53
2023/02/04 02:21:53;;;;;;;2.63;1.60;;;;;;;1.61;100.00;102639.25;7392582;19;20420;-55
2023/02/04 02:24:30;;;;;;;4.80;1.77;;;;;;;1.69;100.00;102640.09;7395428;19;20409;-52
2023/02/04 02:27:02;;;;;;;4.97;2.40;;;;;;;2.03;100.00;102641.16;7383081;19;20438;-50
2023/02/04 02:29:32;;;;;;;4.30;2.03;;;;;;;1.55;100.00;102646.22;7395619;19;20410;-52
2023/02/04 02:32:02;;;;;;;8.10;1.97;;;;;;;1.34;100.00;102655.88;7391856;19;20439;-52
2023/02/04 02:34:31;;;;;;;5.40;2.30;;;;;;;1.46;100.00;102656.31;7393499;19;20404;-50
2023/02/04 02:37:01;;;;;;;5.10;1.70;;;;;;;1.39;100.00;102657.25;7390094;19;20448;-49
2023/02/04 02:39:34;;;;;;;4.67;1.73;;;;;;;1.40;100.00;102664.19;7395490;19;20435;-49
2023/02/04 02:42:03;;;;;;;4.03;1.60;;;;;;;0.97;100.00;102674.69;7391883;19;20435;-50
2023/02/04 02:44:33;;;;;;;2.50;1.80;;;;;;;0.62;100.00;102683.59;7395672;19;20405;-54
2023/02/04 02:47:03;;;;;;;3.77;1.90;;;;;;;0.46;100.00;102692.78;7388515;19;20966;-57
2023/02/04 02:49:35;;;;;;;3.70;2.17;;;;;;;0.49;100.00;102699.13;7394979;19;20399;-53
2023/02/04 02:52:05;;;;;;;3.37;2.07;;;;;;;0.66;100.00;102695.03;7391367;19;20450;-53
2023/02/04 02:54:37;;;;;;;5.60;2.10;;;;;;;0.89;100.00;102696.72;7393434;19;20411;-55
2023/02/04 02:57:13;;;;;;;3.90;2.07;;;;;;;0.86;100.00;102702.34;7389191;19;20447;-56
2023/02/04 02:59:42;;;;;;;3.77;2.00;;;;;;;0.85;100.00;102705.63;7394723;19;20391;-56
2023/02/04 03:02:13;;;;;;;5.33;2.27;;;;;;;1.03;100.00;102706.78;7391373;19;20431;-55
2023/02/04 03:04:45;;;;;;;5.03;2.70;;;;;;;1.12;100.00;102706.91;7394361;19;20393;-55
2023/02/04 03:07:15;;;;;;;3.33;1.87;;;;;;;1.26;100.00;102703.34;7390438;19;20438;-56
2023/02/04 03:09:47;;;;;;;7.77;2.40;;;;;;;1.47;100.00;102709.00;7394472;19;20788;-55
2023/02/04 03:12:16;;;;;;;9.33;3.33;;;;;;;1.23;100.00;102714.84;7391244;19;20781;-55
2023/02/04 03:14:46;;;;;;;4.37;2.67;;;;;;;1.13;100.00;102729.06;7392011;19;20936;-56
2023/02/04 03:17:15;;;;;;;16.50;2.73;;;;;;;0.86;100.00;102742.13;7388487;19;20439;-56
2023/02/04 03:19:45;;;;;;;6.00;2.70;;;;;;;0.59;100.00;102744.25;7392744;19;20800;-53
2023/02/04 03:22:14;;;;;;;10.63;4.37;;;;;;;0.69;100.00;102747.81;7390738;19;20390;-55
2023/02/04 03:24:46;;;;;;;6.30;2.80;;;;;;;0.88;100.00;102748.28;7393603;19;20403;-56
2023/02/04 03:27:16;;;;;;;6.60;2.50;;;;;;;0.88;100.00;102755.91;7389058;19;20794;-54
2023/02/04 03:29:46;;;;;;;6.27;2.50;;;;;;;1.03;100.00;102764.38;7392727;19;20758;-51
2023/02/04 03:32:16;;;;;;;5.70;2.20;;;;;;;1.18;100.00;102767.72;7387103;19;20411;-55
2023/02/04 03:34:45;;;;;;;7.20;2.50;;;;;;;0.94;100.00;102775.28;7388317;19;20406;-56
2023/02/04 03:37:15;;;;;;;7.10;2.70;;;;;;;0.98;100.00;102783.28;7385622;19;20415;-55
2023/02/04 03:39:47;;;;;;;3.70;2.13;;;;;;;0.86;100.00;102803.16;7391345;19;21009;-56
2023/02/04 03:42:16;;;;;;;4.40;2.17;;;;;;;0.51;100.00;102813.63;7388169;19;20946;-55
2023/02/04 03:44:46;;;;;;;4.70;2.50;;;;;;;0.84;100.00;102822.38;7390111;19;20415;-56
2023/02/04 03:47:15;;;;;;;6.27;2.50;;;;;;;1.11;100.00;102829.69;7386880;19;21064;-53
2023/02/04 03:49:44;;;;;;;4.93;2.17;;;;;;;0.99;100.00;102825.75;7391696;19;20417;-56
2023/02/04 03:52:14;;;;;;;5.60;2.77;;;;;;;0.70;100.00;102836.03;7389032;19;20425;-56
2023/02/04 03:54:43;;;;;;;5.67;2.23;;;;;;;0.65;100.00;102845.66;7391071;19;20419;-54
2023/02/04 03:57:16;;;;;;;6.43;2.10;;;;;;;0.71;100.00;102854.00;7387684;19;20382;-55
2023/02/04 03:59:46;;;;;;;5.10;2.97;;;;;;;1.04;100.00;102850.97;7393053;19;20399;-56
2023/02/04 04:02:15;;;;;;;4.60;2.30;;;;;;;1.12;100.00;102856.94;7388856;19;20433;-51
2023/02/04 04:04:45;;;;;;;4.73;2.47;;;;;;;1.01;100.00;102864.97;7392524;19;20384;-56
2023/02/04 04:07:14;;;;;;;4.87;2.90;;;;;;;0.61;100.00;102881.66;7388521;19;20411;-55
2023/02/04 04:09:43;;;;;;;4.80;2.80;;;;;;;0.66;100.00;102878.91;7392488;19;20934;-51
2023/02/04 04:12:15;;;;;;;3.57;2.37;;;;;;;0.65;100.00;102882.16;7389473;19;20776;-54
2023/02/04 04:14:45;;;;;;;4.10;2.03;;;;;;;0.63;100.00;102876.00;7390754;19;20411;-56
2023/02/04 04:17:14;;;;;;;4.97;2.40;;;;;;;0.69;100.00;102877.41;7388087;19;20415;-53
2023/02/04 04:19:45;;;;;;;4.50;2.30;;;;;;;0.77;100.00;102884.31;7392701;19;20474;-52
2023/02/04 04:22:14;;;;;;;7.40;2.73;;;;;;;0.76;100.00;102892.66;7389028;19;20410;-50
2023/02/04 04:24:44;;;;;;;5.60;2.43;;;;;;;0.70;100.00;102899.56;7392463;19;20755;-52
2023/02/04 04:27:16;;;;;;;4.43;2.70;;;;;;;0.82;100.00;102888.28;7387947;19;20413;-49
2023/02/04 04:29:45;;;;;;;6.20;2.40;;;;;;;0.88;100.00;102901.69;7392330;19;20753;-49
2023/02/04 04:32:15;;;;;;;3.57;2.10;;;;;;;0.76;100.00;102906.28;7388495;19;20436;-51
2023/02/04 04:34:44;;;;;;;7.10;3.57;;;;;;;1.05;100.00;102907.81;7390476;19;20410;-50
2023/02/04 04:37:14;;;;;;;139.80;56.57;;;;;;;1.24;100.00;102915.03;7387259;19;20987;-51
2023/02/04 04:39:43;;;;;;;27.13;14.43;;;;;;;1.67;100.00;102912.25;7391595;19;20413;-52
2023/02/04 04:42:15;;;;;;;58.20;27.80;;;;;;;2.25;100.00;102909.28;7394656;19;20410;-51
2023/02/04 04:44:45;;;;;;;27.10;11.83;;;;;;;1.95;100.00;102928.06;7399210;19;20404;-50
2023/02/04 04:47:14;;;;;;;24.27;12.97;;;;;;;2.57;100.00;102933.94;7392985;19;20426;-52
2023/02/04 04:49:44;;;;;;;18.13;8.90;;;;;;;2.22;100.00;102951.34;7398767;19;20392;-50
2023/02/04 04:52:13;;;;;;;12.53;6.73;;;;;;;2.14;100.00;102959.06;7395023;19;20443;-52
2023/02/04 04:54:42;;;;;;;9.43;5.03;;;;;;;2.35;100.00;102971.47;7397532;19;20413;-50
2023/02/04 04:57:12;;;;;;;8.83;4.30;;;;;;;2.45;100.00;102991.22;7393593;19;20399;-52
2023/02/04 04:59:44;;;;;;;4.03;2.60;;;;;;;2.26;100.00;103013.00;7398215;19;20420;-50
2023/02/04 05:02:13;;;;;;;4.23;1.80;;;;;;;1.38;100.00;103031.09;7395364;19;20407;-52
2023/02/04 05:04:43;;;;;;;5.80;2.30;;;;;;;1.05;100.00;103051.16;7398651;19;20432;-51
2023/02/04 05:07:12;;;;;;;4.53;2.20;;;;;;;0.91;100.00;103052.06;7393881;19;20423;-50
2023/02/04 05:09:42;;;;;;;5.37;2.03;;;;;;;0.82;100.00;103071.28;7398369;19;20922;-52
2023/02/04 05:12:11;;;;;;;5.70;2.87;;;;;;;0.82;100.00;103078.91;7394743;19;21173;-49
2023/02/04 05:14:40;;;;;;;7.27;3.00;;;;;;;0.68;100.00;103090.00;7397084;19;20400;-49
2023/02/04 05:17:12;;;;;;;6.57;2.40;;;;;;;0.60;100.00;103096.69;7393495;19;20411;-50
2023/02/04 05:19:42;;;;;;;6.87;2.83;;;;;;;0.61;100.00;103090.88;7397704;19;20403;-51
2023/02/04 05:22:11;;;;;;;4.40;2.40;;;;;;;0.54;100.00;103098.50;7393705;19;20414;-52
2023/02/04 05:24:41;;;;;;;5.77;3.00;;;;;;;0.50;100.00;103102.31;7398813;19;20424;-51
2023/02/04 05:27:10;;;;;;;8.53;2.37;;;;;;;0.44;100.00;103098.13;7392647;19;20474;-50
2023/02/04 05:29:39;;;;;;;6.23;2.50;;;;;;;0.36;100.00;103098.09;7397157;19;20407;-49
2023/02/04 05:32:09;;;;;;;7.50;2.07;;;;;;;0.35;100.00;103096.28;7394299;19;20397;-51
2023/02/04 05:34:41;;;;;;;3.03;2.40;;;;;;;0.35;100.00;103096.28;7396380;19;20410;-51
2023/02/04 05:37:10;;;;;;;5.30;2.43;;;;;;;0.36;100.00;103087.94;7392744;19;20413;-50
2023/02/04 05:39:40;;;;;;;4.67;2.77;;;;;;;0.36;100.00;103085.41;7396792;19;20395;-52
2023/02/04 05:42:09;;;;;;;5.57;2.33;;;;;;;0.26;100.00;103090.13;7394318;19;20431;-49
2023/02/04 05:44:39;;;;;;;5.77;3.20;;;;;;;0.28;100.00;103081.03;7396979;19;20773;-50
2023/02/04 05:47:08;;;;;;;5.73;3.13;;;;;;;0.32;100.00;103088.31;7392242;19;20419;-49
2023/02/04 05:49:37;;;;;;;4.03;2.43;;;;;;;0.26;100.00;103088.47;7396975;19;20387;-50
2023/02/04 05:52:10;;;;;;;4.20;2.47;;;;;;;0.28;100.00;103096.28;7393153;19;21078;-50
2023/02/04 05:54:39;;;;;;;3.37;2.50;;;;;;;0.18;100.00;103094.25;7396049;19;20434;-50
2023/02/04 05:57:09;;;;;;;7.33;3.00;;;;;;;0.11;100.00;103089.16;7391835;19;20407;-50
2023/02/04 05:59:38;;;;;;;4.07;2.53;;;;;;;0.06;100.00;103086.03;7396398;19;20437;-52
2023/02/04 06:02:08;;;;;;;7.03;2.90;;;;;;;0.05;100.00;103089.31;7393252;19;20407;-50
2023/02/04 06:04:37;;;;;;;5.90;2.90;;;;;;;-0.10;100.00;103088.34;7396266;19;20384;-51
2023/02/04 06:07:09;;;;;;;5.60;2.57;;;;;;;-0.06;100.00;103092.19;7391759;19;20431;-50
2023/02/04 06:09:39;;;;;;;4.13;2.70;;;;;;;-0.07;100.00;103092.88;7396288;19;20408;-54
2023/02/04 06:12:09;;;;;;;4.10;2.40;;;;;;;-0.14;100.00;103099.75;7392924;19;20411;-53
2023/02/04 06:14:38;;;;;;;5.30;2.73;;;;;;;-0.15;100.00;103110.63;7395601;19;20417;-52
2023/02/04 06:17:08;;;;;;;8.37;3.57;;;;;;;-0.25;100.00;103111.84;7391224;19;20435;-53
2023/02/04 06:19:37;;;;;;;6.33;3.57;;;;;;;-0.32;100.00;103113.63;7395354;19;20399;-53
2023/02/04 06:22:09;;;;;;;4.37;2.73;;;;;;;-0.32;100.00;103110.16;7392436;19;21137;-52
2023/02/04 06:24:39;;;;;;;8.32;2.90;;;;;;;-0.37;100.00;103122.28;7396245;19;20415;-54
2023/02/04 06:27:08;;;;;;;5.40;2.40;;;;;;;-0.40;100.00;103127.00;7390191;19;20584;-55
2023/02/04 06:29:37;;;;;;;5.70;2.80;;;;;;;-0.44;100.00;103125.72;7395343;19;20932;-55
2023/02/04 06:32:07;;;;;;;4.63;2.50;;;;;;;-0.47;100.00;103129.50;7391380;19;20438;-55
2023/02/04 06:34:36;;;;;;;6.15;3.00;;;;;;;-0.47;100.00;103125.31;7394763;19;20418;-53
2023/02/04 06:37:06;;;;;;;5.72;3.05;;;;;;;-0.42;100.00;103125.88;7390419;19;20213;-54
2023/02/04 06:39:38;;;;;;;8.97;3.20;;;;;;;-0.41;100.00;103133.69;7394799;19;20146;-51
2023/02/04 06:42:07;;;;;;;9.45;3.20;;;;;;;-0.35;100.00;103146.25;7391359;19;20415;-51
2023/02/04 06:44:37;;;;;;;5.68;3.10;;;;;;;-0.40;100.00;103152.38;7394940;19;20134;-50
2023/02/04 06:47:06;;;;;;;5.50;3.15;;;;;;;-0.44;100.00;103155.22;7390403;19;20206;-50
2023/02/04 06:49:36;;;;;;;8.33;3.30;;;;;;;-0.48;100.00;103159.00;7394339;19;20130;-54
2023/02/04 06:52:05;;;;;;;4.53;2.92;;;;;;;-0.54;100.00;103163.31;7390911;19;20467;-53
2023/02/04 06:54:38;;;;;;;7.28;3.60;;;;;;;-0.52;100.00;103173.66;7394579;19;20146;-50
2023/02/04 06:57:08;;;;;;;11.20;3.50;;;;;;;-0.47;100.00;103178.59;7388583;19;20202;-50
2023/02/04 06:59:38;;;;;;;7.37;3.27;;;;;;;-0.45;100.00;103177.13;7393942;19;20399;-52
2023/02/04 07:02:09;;;;;;;8.23;3.30;;;;;;;-0.47;100.00;103176.03;7391154;19;20423;-57
2023/02/04 07:04:39;;;;;;;5.63;3.43;;;;;;;-0.44;100.00;103181.53;7393150;19;20403;-55
2023/02/04 07:07:08;;;;;;;4.60;2.70;;;;;;;-0.46;100.00;103192.19;7389868;19;20414;-53
2023/02/04 07:09:41;;;;;;;4.75;2.83;;;;;;;-0.43;100.00;103190.94;7394180;19;20431;-52
2023/02/04 07:12:10;;;;;;;5.80;3.27;;;;;;;-0.32;100.00;103199.91;7391070;19;20205;-50
2023/02/04 07:14:40;;;;;;;4.73;2.90;;;;;;;-0.31;100.00;103209.31;7393750;19;20756;-52
2023/02/04 07:17:09;;;;;;;6.43;3.20;;;;;;;-0.30;100.00;103207.72;7388357;19;20930;-54
2023/02/04 07:19:39;;;;;;;10.83;3.23;;;;;;;-0.26;100.00;103212.44;7393539;19;20394;-50
2023/02/04 07:22:08;;;;;;;5.20;3.53;;;;;;;-0.15;100.00;103216.31;7390093;19;20422;-51
2023/02/04 07:24:40;;;;;;;5.83;3.40;;;;;;;-0.19;100.00;103220.13;7393735;19;20396;-54
2023/02/04 07:27:10;;;;;;;7.30;3.67;;;;;;;-0.12;100.00;103228.50;7389526;19;20395;-56
2023/02/04 07:29:39;;;;;;;6.53;3.07;;;;;;;-0.21;100.00;103239.28;7393673;19;20416;-54
2023/02/04 07:32:08;;;;;;;5.00;3.07;;;;;;;-0.26;100.00;103242.88;7390147;19;20428;-54
2023/02/04 07:34:38;;;;;;;8.97;3.30;;;;;;;-0.21;100.00;103246.91;7393083;19;20419;-53
2023/02/04 07:37:07;;;;;;;5.23;3.50;;;;;;;-0.06;100.00;103247.03;7387929;19;20446;-54
2023/02/04 07:39:37;;;;;;;5.73;3.20;;;;;;;0.02;100.00;103251.41;7393794;19;20423;-56
2023/02/04 07:42:09;;;;;;;8.70;3.50;;;;;;;-0.07;100.00;103256.25;7389870;19;20421;-54
2023/02/04 07:44:39;;;;;;;12.00;4.20;;;;;;;-0.05;100.00;103259.00;7393358;19;20401;-54
2023/02/04 07:47:08;;;;;;;5.60;3.80;;;;;;;0.07;100.00;103260.53;7388701;19;20411;-56
2023/02/04 07:49:37;;;;;;;7.63;4.37;;;;;;;0.08;100.00;103261.41;7392801;19;20155;-51
2023/02/04 07:52:08;;;;;;;10.53;4.70;;;;;;;0.05;100.00;103267.03;7389676;19;20419;-56
2023/02/04 07:54:37;;;;;;;10.73;4.97;;;;;;;0.02;100.00;103261.56;7392940;19;20859;-55
2023/02/04 07:57:09;;;;;;;11.93;4.70;;;;;;;-0.03;100.00;103267.69;7387074;19;20423;-56
2023/02/04 07:59:39;;;;;;;10.13;4.40;;;;;;;0.05;100.00;103272.09;7392681;19;20918;-52
2023/02/04 08:02:08;;;;;;;8.73;4.70;;;;;;;0.13;100.00;103275.59;7390031;19;20415;-57
2023/02/04 08:04:38;;;;;;;6.80;3.93;;;;;;;0.18;100.00;103279.63;7392742;19;20391;-52
2023/02/04 08:07:08;;;;;;;10.13;4.67;;;;;;;0.28;100.00;103283.28;7388332;19;20395;-51
2023/02/04 08:09:37;;;;;;;7.93;3.73;;;;;;;0.38;100.00;103288.81;7392366;19;20404;-52
2023/02/04 08:12:09;;;;;;;8.27;4.67;;;;;;;0.30;100.00;103295.47;7388965;19;20396;-50
2023/02/04 08:14:39;;;;;;;7.07;3.97;;;;;;;0.37;100.00;103292.97;7392933;19;20428;-52
2023/02/04 08:17:08;;;;;;;10.43;4.43;;;;;;;0.34;100.00;103296.75;7392866;19;20438;-51
2023/02/04 08:19:38;;;;;;;13.37;5.20;;;;;;;0.37;100.00;103303.13;7399578;19;20404;-53
2023/02/04 08:22:07;;;;;;;10.40;4.50;;;;;;;0.40;100.00;103300.97;7396547;19;20420;-53
2023/02/04 08:24:37;;;;;;;7.80;4.10;;;;;;;0.53;100.00;103300.84;7399229;19;20399;-52
2023/02/04 08:27:06;;;;;;;8.73;4.67;;;;;;;0.73;100.00;103311.66;7394653;19;20414;-55
2023/02/04 08:29:38;;;;;;;8.60;4.03;;;;;;;0.74;100.00;103321.09;7399407;19;20410;-52
2023/02/04 08:32:08;;;;;;;8.00;4.43;;;;;;;0.76;100.00;103314.56;7395635;19;20429;-56
2023/02/04 08:34:38;;;;;;;6.57;3.70;;;;;;;0.87;100.00;103324.41;7398704;19;20418;-51
2023/02/04 08:37:07;;;;;;;7.90;3.80;;;;;;;0.84;100.00;103329.16;7393544;19;20411;-53
2023/02/04 08:39:37;;;;;;;8.60;4.10;;;;;;;0.86;100.00;103336.97;7398509;19;20426;-51
2023/02/04 08:42:06;;;;;;;6.00;3.07;;;;;;;0.96;100.00;103329.72;7395593;19;20426;-50
2023/02/04 08:44:38;;;;;;;5.70;3.47;;;;;;;1.04;100.00;103338.28;7398558;19;20930;-51
2023/02/04 08:47:08;;;;;;;5.20;2.83;;;;;;;1.06;100.00;103319.97;7393853;19;20436;-54
2023/02/04 08:49:38;;;;;;;5.73;2.80;;;;;;;1.14;100.00;103333.63;7398389;19;20754;-54
2023/02/04 08:52:07;;;;;;;9.70;3.87;;;;;;;1.77;100.00;103330.78;7395391;19;21174;-54
2023/02/04 08:54:37;;;;;;;41.53;20.27;;;;;;;2.68;100.00;103340.47;7398309;19;20391;-50
2023/02/04 08:57:07;;;;;;;79.73;39.27;;;;;;;3.37;100.00;103344.88;7393414;19;20414;-52
2023/02/04 08:59:39;;;;;;;86.90;40.50;;;;;;;3.27;100.00;103357.31;7398264;19;20408;-55
2023/02/04 09:02:08;;;;;;;47.57;23.23;;;;;;;3.49;100.00;103380.19;7395150;19;20407;-53
2023/02/04 09:04:38;;;;;;;9.73;5.23;;;;;;;2.73;100.00;103408.22;7398343;19;20423;-54
2023/02/04 09:07:07;;;;;;;11.53;4.50;;;;;;;2.59;100.00;103427.00;7394292;19;20471;-51
2023/02/04 09:09:36;;;;;;;3.70;2.00;;;;;;;2.34;100.00;103441.00;7397816;19;20410;-53
2023/02/04 09:12:06;;;;;;;14.07;7.27;;;;;;;2.13;100.00;103453.03;7394610;19;20427;-53
2023/02/04 09:14:35;;;;;;;14.73;6.83;;;;;;;2.29;100.00;103461.78;7393632;19;20392;-54
2023/02/04 09:17:07;;;;;;;11.83;3.77;;;;;;;2.14;100.00;103470.13;7390662;19;20419;-55
2023/02/04 09:19:37;;;;;;;7.43;3.80;;;;;;;2.21;100.00;103480.31;7395083;19;20403;-55
2023/02/04 09:22:06;;;;;;;8.93;3.87;;;;;;;2.45;100.00;103499.28;7392799;19;20414;-54
2023/02/04 09:24:35;;;;;;;9.93;3.63;;;;;;;2.62;100.00;103502.91;7393232;19;20415;-50
2023/02/04 09:27:05;;;;;;;7.23;3.17;;;;;;;2.56;100.00;103508.19;7392201;19;20446;-51
2023/02/04 09:29:34;;;;;;;6.93;3.80;;;;;;;2.58;100.00;103516.03;7396976;19;20403;-53
2023/02/04 09:32:04;;;;;;;6.30;3.50;;;;;;;2.64;100.00;103516.75;7392873;19;20415;-51
2023/02/04 09:34:36;;;;;;;7.93;4.57;;;;;;;2.67;100.00;103532.44;7396700;19;20383;-51
2023/02/04 09:37:05;;;;;;;12.03;4.53;;;;;;;2.68;100.00;103529.16;7391863;19;20419;-51
2023/02/04 09:39:35;;;;;;;19.73;9.93;;;;;;;2.81;100.00;103546.78;7396315;19;20426;-53
2023/02/04 09:42:05;;;;;;;18.43;9.17;;;;;;;2.74;100.00;103534.97;7392932;19;20435;-51
2023/02/04 09:44:34;;;;;;;15.30;6.90;;;;;;;2.71;100.00;103544.78;7396490;19;20430;-52
2023/02/04 09:47:03;;;;;;;15.80;7.20;;;;;;;2.64;100.00;103548.28;7391990;19;20426;-52
2023/02/04 09:49:35;;;;;;;16.33;6.20;;;;;;;2.75;100.00;103547.00;7396039;19;20424;-52
2023/02/04 09:52:05;;;;;;;15.07;7.37;;;;;;;2.62;100.00;103554.81;7392964;19;20411;-51
2023/02/04 09:54:37;;;;;;;6.60;3.47;;;;;;;2.54;100.00;103564.13;7396040;19;20403;-51
2023/02/04 09:57:12;;;;;;;10.07;4.10;;;;;;;2.54;100.00;103558.09;7391974;19;20551;-52
2023/02/04 09:59:42;;;;;;;7.30;3.03;;;;;;;2.60;100.00;103568.13;7396241;19;20419;-50
2023/02/04 10:02:21;;;;;;;7.43;4.00;;;;;;;2.66;100.00;103566.31;7392782;19;20419;-54
2023/02/04 10:04:56;;;;;;;6.77;2.80;;;;;;;2.60;100.00;103570.69;7396144;19;20399;-54
2023/02/04 10:07:26;;;;;;;12.10;6.53;;;;;;;2.79;100.00;103569.59;7390424;19;20459;-57
2023/02/04 10:09:56;;;;;;;16.97;8.30;;;;;;;3.60;100.00;103572.88;7396183;19;20400;-51
2023/02/04 10:12:26;;;;;;;11.47;7.13;;;;;;;3.36;100.00;103584.63;7391456;19;20435;-56
2023/02/04 10:14:55;;;;;;;34.57;16.47;;;;;;;3.65;100.00;103588.00;7395819;19;20411;-52
2023/02/04 10:17:25;;;;;;;76.30;38.70;;;;;;;3.62;100.00;103597.88;7389160;19;20455;-51
2023/02/04 10:19:57;;;;;;;7.23;3.80;;;;;;;3.35;100.00;103611.78;7395598;19;20427;-52
2023/02/04 10:22:27;;;;;;;10.10;4.63;;;;;;;3.07;100.00;103613.66;7390614;19;20438;-52
2023/02/04 10:24:56;;;;;;;5.07;1.97;;;;;;;2.97;100.00;103610.72;7395501;19;20400;-55
2023/02/04 10:27:25;;;;;;;13.77;7.57;;;;;;;3.10;100.00;103605.44;7389822;19;20431;-52
2023/02/04 10:29:58;;;;;;;8.13;4.00;;;;;;;3.41;100.00;103603.00;7395297;19;20395;-53
2023/02/04 10:32:30;;;;;;;9.63;4.83;;;;;;;3.56;100.00;103607.38;7390609;19;20436;-51
2023/02/04 10:35:03;;;;;;;3.40;1.20;;;;;;;3.31;100.00;103618.91;7394887;19;20420;-55
2023/02/04 10:37:33;;;;;;;3.87;2.00;;;;;;;3.34;100.00;103614.16;7388281;19;20451;-53
2023/02/04 10:40:03;;;;;;;3.30;1.67;;;;;;;3.13;100.00;103617.66;7393821;19;20739;-51
2023/02/04 10:42:32;;;;;;;4.57;1.27;;;;;;;2.92;100.00;103624.59;7390839;19;20543;-52
2023/02/04 10:45:02;;;;;;;3.33;1.20;;;;;;;2.73;100.00;103631.69;7395457;19;20442;-53
2023/02/04 10:47:34;;;;;;;8.03;1.40;;;;;;;2.87;100.00;103629.13;7389442;19;20427;-51
2023/02/04 10:50:16;;;;;;;3.07;1.60;;;;;;;2.99;100.00;103624.59;7394808;19;20412;-50
2023/02/04 10:52:48;;;;;;;3.90;1.70;;;;;;;3.14;100.00;103625.50;7391636;19;20470;-51
2023/02/04 10:55:17;;;;;;;3.60;1.47;;;;;;;3.28;100.00;103614.34;7394869;19;20410;-50
2023/02/04 10:57:48;;;;;;;7.80;2.00;;;;;;;3.25;100.00;103616.56;7388611;19;20998;-52
2023/02/04 11:00:20;;;;;;;2.70;1.20;;;;;;;3.18;100.00;103626.78;7395307;19;20405;-53
2023/02/04 11:02:58;;;;;;;2.97;1.50;;;;;;;3.22;100.00;103623.81;7390439;19;20431;-54
2023/02/04 11:05:32;;;;;;;3.80;1.30;;;;;;;3.10;100.00;103637.00;7393028;19;20404;-51
2023/02/04 11:08:02;;;;;;;4.90;1.80;;;;;;;3.16;100.00;103638.41;7389910;19;20802;-51
2023/02/04 11:10:32;;;;;;;3.50;1.60;;;;;;;3.17;100.00;103632.59;7393752;19;20403;-51
2023/02/04 11:13:05;;;;;;;4.20;1.60;;;;;;;3.21;100.00;103642.44;7390363;19;20440;-53
2023/02/04 11:15:45;;;;;;;6.20;1.60;;;;;;;3.33;100.00;103638.78;7392279;19;20432;-50
2023/02/04 11:18:31;;;;;;;5.07;2.10;;;;;;;3.45;100.00;103648.59;7389590;19;20451;-50
2023/02/04 11:21:03;;;;;;;4.53;1.57;;;;;;;3.53;100.00;103655.50;7393653;19;20438;-53
2023/02/04 11:23:35;;;;;;;2.47;1.13;;;;;;;3.57;100.00;103664.44;7390473;19;20444;-52
2023/02/04 11:26:17;;;;;;;4.53;1.70;;;;;;;3.52;100.00;103676.66;7393225;19;20408;-50
2023/02/04 11:29:09;;;;;;;4.77;1.33;;;;;;;3.56;100.00;103686.53;7390698;19;20450;-53
2023/02/04 11:31:57;;;;;;;4.50;1.80;;;;;;;3.63;100.00;103689.06;7389987;19;20401;-55
2023/02/04 11:34:32;;;;;;;3.53;1.80;;;;;;;3.75;100.00;103691.22;7392511;19;20399;-53
2023/02/04 11:37:32;;;;;;;2.93;1.80;;;;;;;3.76;100.00;103687.94;7388699;19;20417;-50